Findlay Airport
KFDY : now visible

Airfield :











YOU CAN JOIN US ON...

 
LOGIN :

Register | Disclaimer

   EN    FR    IT 

 









Legend :    VFR   Marginal VFR   IFR   Intensive IFR   Very Intensive IFR
Visi :
Ceiling :
>= 8 km
>= 3000ft
5 to 8 km
1000 to 3000 ft
1500m to 5 km
500 to 1000 ft
800 to 1500m
200 to 500 ft
< 800m
< 200 ft
Symbols :   Thunderstorms  Fog  Heavy snow  Heavy precipitations  Wind > 20 kt






- Airport Elevation : 813 ft


KFDY - Findlay

CURRENT METAR :
  • 110653Z AUTO 25007KT 10SM CLR 22/18 A2989 RMK AO2 SLP110 T02220183

EXPIRED METARs :
  • 110553Z AUTO 20006KT 10SM SCT120 22/19 A2988 RMK AO2 SLP106 60001 T02170189 10283 20211 55013

TAF KFDY
Valid from the 11 at 06:00 until the 12 at 06:00 UTC


110526Z 1106/1206 24008KT P6SM SCT100
FM111200 24007KT P6SM BKN050
FM111400 25006KT P6SM BKN110
FM111800 28006KT P6SM BKN150
FM120000 VRB04KT P6SM FEW150
KZOB FIR / North America



MET'MAP, your aeronautical weather chart ! - Copyright ORBIFLY December 2007 - Disclaimer

ORBIFLY MET'MAP TEAM :

Programming & Development : Alexandra Zaïnal
Concept & original design : Baudouin d'Aumeries
Assistance for programming : Marc-Olivier Méhu
Technical & hardware support : Manuel Goepfert

Contact : metmap@orbifly.com




SOURCES & CREDITS :

   NOAA       Earth
Advisory